createdAt,value
2023-01-13T00:00:05.619Z,86.55
2023-01-13T00:00:43.171Z,86.47
2023-01-13T00:01:17.002Z,86.15
2023-01-13T00:01:48.711Z,85.89
2023-01-13T00:02:20.429Z,85.89
2023-01-13T00:02:52.120Z,86.02
2023-01-13T00:03:23.929Z,86.02
2023-01-13T00:03:56.091Z,85.80
2023-01-13T00:04:28.808Z,85.91
2023-01-13T00:05:00.567Z,85.70
2023-01-13T00:05:32.349Z,85.05
2023-01-13T00:06:04.381Z,84.74
2023-01-13T00:06:36.398Z,84.46
2023-01-13T00:07:08.077Z,84.41
2023-01-13T00:07:43.375Z,84.54
2023-01-13T00:08:15.452Z,84.50
2023-01-13T00:08:51.166Z,84.68
2023-01-13T00:09:22.902Z,84.84
2023-01-13T00:09:54.597Z,85.05
2023-01-13T00:10:26.270Z,84.91
2023-01-13T00:10:58.202Z,84.89
2023-01-13T00:11:29.892Z,84.74
2023-01-13T00:12:01.974Z,84.61
2023-01-13T00:12:33.691Z,84.35
2023-01-13T00:13:05.684Z,85.12
2023-01-13T00:13:38.507Z,85.78
2023-01-13T00:14:10.194Z,85.85
2023-01-13T00:14:41.869Z,85.96
2023-01-13T00:15:13.778Z,86.42
2023-01-13T00:15:55.149Z,86.46
2023-01-13T00:16:26.876Z,86.21
2023-01-13T00:16:58.581Z,86.00
2023-01-13T00:17:30.563Z,87.32
2023-01-13T00:18:02.265Z,87.93
2023-01-13T00:18:34.649Z,87.97
2023-01-13T00:19:06.334Z,87.61
2023-01-13T00:19:38.097Z,88.07
2023-01-13T00:20:10.208Z,88.36
2023-01-13T00:20:41.894Z,87.92
2023-01-13T00:21:13.653Z,89.45
2023-01-13T00:21:45.324Z,89.53
2023-01-13T00:22:17.071Z,89.20
2023-01-13T00:22:49.074Z,88.93
2023-01-13T00:23:20.876Z,88.97
2023-01-13T00:23:54.024Z,89.12
2023-01-13T00:24:25.836Z,88.58
2023-01-13T00:24:58.989Z,87.45
2023-01-13T00:25:30.672Z,86.96
2023-01-13T00:26:03.794Z,86.98
2023-01-13T00:26:36.071Z,87.16
2023-01-13T00:27:08.089Z,88.06
2023-01-13T00:27:39.819Z,87.83
2023-01-13T00:28:11.779Z,87.61
2023-01-13T00:28:43.697Z,87.23
2023-01-13T00:29:15.383Z,86.64
2023-01-13T00:29:47.098Z,86.39
2023-01-13T00:30:18.847Z,86.73
2023-01-13T00:30:50.778Z,86.58
2023-01-13T00:31:22.613Z,86.32
2023-01-13T00:31:55.496Z,86.54
2023-01-13T00:32:27.379Z,86.48
2023-01-13T00:32:59.049Z,85.95
2023-01-13T00:33:31.028Z,85.97
2023-01-13T00:34:02.746Z,85.86
2023-01-13T00:34:34.436Z,85.39
2023-01-13T00:35:06.364Z,85.37
2023-01-13T00:35:38.001Z,85.55
2023-01-13T00:36:12.602Z,86.12
2023-01-13T00:36:44.948Z,86.38
2023-01-13T00:37:16.735Z,86.08
2023-01-13T00:37:48.489Z,86.27
2023-01-13T00:38:20.164Z,85.97
2023-01-13T00:38:52.162Z,86.18
2023-01-13T00:39:23.867Z,86.55
2023-01-13T00:39:55.656Z,86.08
2023-01-13T00:40:27.343Z,86.07
2023-01-13T00:40:59.832Z,86.25
2023-01-13T00:41:51.464Z,85.96
2023-01-13T00:43:02.070Z,86.25
2023-01-13T00:43:34.782Z,86.89
2023-01-13T00:44:06.741Z,86.31
2023-01-13T00:44:38.441Z,86.39
2023-01-13T00:45:10.329Z,85.90
2023-01-13T00:45:42.219Z,85.53
2023-01-13T00:46:15.637Z,85.68
2023-01-13T00:46:47.384Z,85.93
2023-01-13T00:47:19.102Z,86.31
2023-01-13T00:47:50.782Z,86.47
2023-01-13T00:48:23.426Z,86.54
2023-01-13T00:48:55.110Z,86.30
2023-01-13T00:49:27.072Z,85.83
2023-01-13T00:49:58.778Z,86.68
2023-01-13T00:50:30.561Z,87.33
2023-01-13T00:51:03.851Z,87.57
2023-01-13T00:51:35.520Z,87.85
2023-01-13T00:52:07.233Z,87.47
2023-01-13T00:52:41.169Z,86.86
2023-01-13T00:53:14.837Z,86.30
2023-01-13T00:53:48.319Z,86.38
2023-01-13T00:54:20.011Z,86.36
2023-01-13T00:54:51.991Z,86.49
2023-01-13T00:55:23.700Z,86.31
2023-01-13T00:55:59.842Z,86.35
2023-01-13T00:56:40.224Z,86.90
2023-01-13T00:57:15.355Z,86.70
2023-01-13T00:57:47.049Z,86.54
2023-01-13T00:58:18.725Z,86.43
2023-01-13T00:58:52.002Z,86.50
2023-01-13T00:59:23.879Z,86.65
2023-01-13T00:59:55.956Z,86.70
2023-01-13T01:00:27.650Z,86.90
2023-01-13T01:01:03.350Z,86.64
2023-01-13T01:01:35.182Z,86.00
2023-01-13T01:02:07.020Z,85.89
2023-01-13T01:02:38.864Z,86.07
2023-01-13T01:03:12.310Z,85.88
2023-01-13T01:03:44.030Z,85.71
2023-01-13T01:04:15.781Z,85.43
2023-01-13T01:04:47.501Z,85.81
2023-01-13T01:05:19.484Z,86.01
2023-01-13T01:05:51.183Z,85.85
2023-01-13T01:06:24.384Z,85.78
2023-01-13T01:06:56.071Z,85.89
2023-01-13T01:07:27.863Z,85.92
2023-01-13T01:07:59.550Z,85.96
2023-01-13T01:08:31.244Z,85.95
2023-01-13T01:09:03.810Z,85.82
2023-01-13T01:09:35.522Z,85.73
2023-01-13T01:10:07.404Z,85.63
2023-01-13T01:10:39.384Z,85.54
2023-01-13T01:11:12.927Z,85.60
2023-01-13T01:11:44.630Z,85.82
2023-01-13T01:12:16.354Z,85.92
2023-01-13T01:12:48.053Z,86.13
2023-01-13T01:13:25.702Z,86.39
2023-01-13T01:13:59.233Z,86.47
2023-01-13T01:14:30.924Z,86.47
2023-01-13T01:15:03.249Z,86.59
2023-01-13T01:15:34.940Z,86.42
2023-01-13T01:16:07.904Z,85.94
2023-01-13T01:16:40.442Z,85.83
2023-01-13T01:17:12.124Z,85.94
2023-01-13T01:17:43.883Z,85.87
2023-01-13T01:18:15.543Z,85.82
2023-01-13T01:18:48.285Z,86.01
2023-01-13T01:19:20.331Z,86.12
2023-01-13T01:19:52.046Z,86.20
2023-01-13T01:20:23.722Z,86.41
2023-01-13T01:20:59.103Z,86.72
2023-01-13T01:21:31.548Z,87.05
2023-01-13T01:22:03.450Z,87.42
2023-01-13T01:22:35.119Z,87.52
2023-01-13T01:23:06.799Z,87.56
2023-01-13T01:23:39.186Z,87.38
2023-01-13T01:24:10.868Z,87.53
2023-01-13T01:24:42.524Z,87.60
2023-01-13T01:25:14.250Z,87.67
2023-01-13T01:25:45.945Z,87.81
2023-01-13T01:26:22.557Z,87.63
2023-01-13T01:26:54.523Z,88.00
2023-01-13T01:27:26.212Z,88.11
2023-01-13T01:27:57.911Z,87.89
2023-01-13T01:28:29.768Z,87.80
2023-01-13T01:29:02.332Z,87.70
2023-01-13T01:29:34.075Z,87.77
2023-01-13T01:30:06.052Z,87.90
2023-01-13T01:30:38.893Z,88.23
2023-01-13T01:31:12.703Z,88.46
2023-01-13T01:31:44.685Z,88.54
2023-01-13T01:32:16.731Z,88.23
2023-01-13T01:32:48.456Z,87.96
2023-01-13T01:33:20.165Z,87.70
2023-01-13T01:33:52.846Z,88.19
2023-01-13T01:34:24.589Z,88.23
2023-01-13T01:34:56.262Z,88.14
2023-01-13T01:35:27.943Z,88.04
2023-01-13T01:36:00.444Z,87.74
2023-01-13T01:36:32.200Z,87.33
2023-01-13T01:37:03.878Z,87.01
2023-01-13T01:37:35.882Z,87.20
2023-01-13T01:38:07.604Z,87.09
2023-01-13T01:38:39.315Z,87.19
2023-01-13T01:39:11.099Z,87.51
2023-01-13T01:39:42.766Z,87.59
2023-01-13T01:40:14.757Z,87.38
2023-01-13T01:40:46.442Z,87.02
2023-01-13T01:41:22.458Z,86.55
2023-01-13T01:42:12.823Z,86.17
2023-01-13T01:43:03.398Z,85.92
2023-01-13T01:44:04.173Z,86.48
2023-01-13T01:44:41.848Z,86.55
2023-01-13T01:45:21.546Z,86.39
2023-01-13T01:45:53.556Z,86.36
2023-01-13T01:46:44.370Z,86.76
2023-01-13T01:47:17.483Z,87.01
2023-01-13T01:47:54.659Z,86.87
2023-01-13T01:48:27.681Z,87.06
2023-01-13T01:49:02.387Z,87.34
2023-01-13T01:49:35.301Z,87.48
2023-01-13T01:50:07.099Z,87.61
2023-01-13T01:50:39.487Z,87.79
2023-01-13T01:51:13.567Z,87.86
2023-01-13T01:51:47.745Z,87.81
2023-01-13T01:52:26.458Z,87.48
2023-01-13T01:53:06.180Z,87.25
2023-01-13T01:53:38.912Z,87.26
2023-01-13T01:54:13.224Z,87.40
2023-01-13T01:54:48.125Z,87.46
2023-01-13T01:55:22.559Z,87.32
2023-01-13T01:55:55.136Z,87.00
2023-01-13T01:56:27.139Z,86.44
2023-01-13T01:56:59.049Z,86.25
2023-01-13T01:57:37.397Z,86.21
2023-01-13T01:58:17.319Z,86.30
2023-01-13T01:58:51.209Z,86.71
2023-01-13T01:59:23.591Z,86.82
2023-01-13T01:59:55.787Z,87.07
2023-01-13T02:00:28.431Z,86.87
2023-01-13T02:01:00.697Z,86.98
2023-01-13T02:01:33.430Z,87.05
2023-01-13T02:02:05.559Z,87.21
2023-01-13T02:02:37.571Z,87.12
2023-01-13T02:03:09.680Z,87.36
2023-01-13T02:03:44.986Z,87.37
2023-01-13T02:04:20.551Z,87.22
2023-01-13T02:04:53.512Z,87.35
2023-01-13T02:05:25.324Z,86.98
2023-01-13T02:05:57.004Z,86.37
2023-01-13T02:06:30.017Z,86.44
2023-01-13T02:07:02.386Z,86.10
2023-01-13T02:07:34.472Z,86.03
2023-01-13T02:08:08.088Z,86.73
2023-01-13T02:08:40.560Z,87.02
2023-01-13T02:09:12.619Z,87.00
2023-01-13T02:09:44.400Z,86.99
2023-01-13T02:10:18.346Z,87.11
2023-01-13T02:10:53.089Z,87.27
2023-01-13T02:11:47.283Z,87.06
2023-01-13T02:12:32.238Z,86.89
2023-01-13T02:13:06.124Z,86.62
2023-01-13T02:13:37.850Z,86.48
2023-01-13T02:14:09.581Z,86.68
2023-01-13T02:14:41.752Z,87.11
2023-01-13T02:15:16.158Z,87.35
2023-01-13T02:16:00.144Z,87.56
2023-01-13T02:16:32.503Z,87.59
2023-01-13T02:17:13.456Z,86.84
2023-01-13T02:17:45.406Z,86.64
2023-01-13T02:18:32.366Z,87.23
2023-01-13T02:19:15.565Z,87.58
2023-01-13T02:20:05.867Z,87.21
2023-01-13T02:21:03.594Z,86.99
2023-01-13T02:21:40.865Z,87.06
2023-01-13T02:22:12.528Z,87.25
2023-01-13T02:23:32.049Z,87.00
2023-01-13T02:24:55.055Z,86.95
2023-01-13T02:25:36.693Z,86.93
2023-01-13T02:26:11.290Z,87.72
2023-01-13T02:26:52.312Z,87.92
2023-01-13T02:27:42.732Z,88.09
2023-01-13T02:28:14.434Z,88.19
2023-01-13T02:29:23.586Z,88.21
2023-01-13T02:30:19.746Z,88.28
2023-01-13T02:31:25.514Z,88.55
2023-01-13T02:32:02.777Z,88.77
2023-01-13T02:32:40.566Z,88.67
2023-01-13T02:33:12.228Z,89.08
2023-01-13T02:34:02.896Z,88.93
2023-01-13T02:34:42.868Z,88.78
2023-01-13T02:35:21.465Z,88.02
2023-01-13T02:36:11.726Z,88.02
2023-01-13T02:36:52.116Z,87.81
2023-01-13T02:37:28.761Z,87.23
2023-01-13T02:38:01.619Z,87.05
2023-01-13T02:38:35.687Z,87.27
2023-01-13T02:39:23.047Z,87.07
2023-01-13T02:40:24.193Z,86.86
2023-01-13T02:40:59.126Z,86.53
2023-01-13T02:41:58.392Z,86.54
2023-01-13T02:42:52.888Z,86.47
2023-01-13T02:43:55.030Z,86.00
2023-01-13T02:44:29.058Z,86.29
2023-01-13T02:45:06.959Z,86.58
2023-01-13T02:45:42.633Z,86.67
2023-01-13T02:46:20.285Z,87.20
2023-01-13T02:46:57.791Z,87.93
2023-01-13T02:47:30.343Z,88.94
2023-01-13T02:48:03.431Z,89.09
2023-01-13T02:48:36.123Z,89.32
2023-01-13T02:49:10.275Z,89.50
2023-01-13T02:49:46.924Z,89.75
2023-01-13T02:50:20.113Z,89.76
2023-01-13T02:50:57.546Z,89.61
2023-01-13T02:51:31.085Z,89.74
2023-01-13T02:52:07.213Z,89.99
2023-01-13T02:53:02.175Z,89.86
2023-01-13T02:53:43.303Z,90.07
2023-01-13T02:54:21.162Z,90.09
2023-01-13T02:54:55.308Z,90.04
2023-01-13T02:55:30.955Z,89.95
2023-01-13T02:56:05.054Z,89.96
2023-01-13T02:56:39.424Z,90.11
2023-01-13T02:57:12.456Z,90.26
2023-01-13T02:57:44.929Z,90.41
2023-01-13T02:58:18.797Z,90.42
2023-01-13T02:58:51.243Z,90.64
2023-01-13T02:59:26.262Z,91.03
2023-01-13T02:59:58.040Z,90.95
2023-01-13T03:00:30.187Z,90.98
2023-01-13T03:01:02.183Z,91.10
2023-01-13T03:01:35.856Z,91.37
2023-01-13T03:02:09.406Z,91.47
2023-01-13T03:02:41.195Z,91.79
2023-01-13T03:03:13.531Z,91.97
2023-01-13T03:03:46.925Z,91.77
2023-01-13T03:04:37.584Z,91.43
2023-01-13T03:05:12.182Z,91.40
2023-01-13T03:05:44.862Z,90.82
2023-01-13T03:06:16.507Z,90.04
2023-01-13T03:07:01.844Z,89.67
2023-01-13T03:07:56.991Z,89.08
2023-01-13T03:08:49.485Z,89.26
2023-01-13T03:09:39.659Z,89.11
2023-01-13T03:10:30.180Z,89.41
2023-01-13T03:11:02.928Z,90.17
2023-01-13T03:11:38.800Z,89.76
2023-01-13T03:12:13.466Z,89.41
2023-01-13T03:12:48.450Z,89.09
2023-01-13T03:13:29.110Z,88.93
2023-01-13T03:14:01.836Z,88.78
2023-01-13T03:14:38.388Z,88.96
2023-01-13T03:15:28.529Z,89.11
2023-01-13T03:16:10.438Z,89.01
2023-01-13T03:17:11.555Z,89.07
2023-01-13T03:17:48.507Z,89.17
2023-01-13T03:18:39.671Z,88.68
2023-01-13T03:19:17.138Z,88.53
2023-01-13T03:19:59.488Z,88.22
2023-01-13T03:20:34.473Z,88.37
2023-01-13T03:21:12.358Z,88.13
2023-01-13T03:22:02.919Z,88.00
2023-01-13T03:22:34.580Z,87.98
2023-01-13T03:23:09.470Z,88.73
2023-01-13T03:23:49.679Z,88.73
2023-01-13T03:24:33.343Z,88.71
2023-01-13T03:25:08.310Z,88.72
2023-01-13T03:25:50.796Z,89.14
2023-01-13T03:26:41.221Z,89.58
2023-01-13T03:27:17.923Z,89.80
2023-01-13T03:27:52.570Z,89.77
2023-01-13T03:28:28.851Z,89.88
2023-01-13T03:29:19.055Z,89.96
2023-01-13T03:29:55.295Z,89.84
2023-01-13T03:30:27.019Z,89.22
2023-01-13T03:31:04.916Z,89.16
2023-01-13T03:31:40.916Z,89.01
2023-01-13T03:32:15.276Z,88.84
2023-01-13T03:32:49.568Z,88.04
2023-01-13T03:33:31.396Z,87.19
2023-01-13T03:34:18.399Z,87.23
2023-01-13T03:35:00.650Z,87.03
2023-01-13T03:35:32.384Z,86.48
2023-01-13T03:36:06.141Z,86.38
2023-01-13T03:36:38.955Z,86.33
2023-01-13T03:37:11.556Z,86.30
2023-01-13T03:37:46.557Z,86.18
2023-01-13T03:38:24.134Z,86.07
2023-01-13T03:38:58.904Z,86.38
2023-01-13T03:39:34.365Z,86.32
2023-01-13T03:40:10.780Z,86.37
2023-01-13T03:40:47.810Z,86.75
2023-01-13T03:41:22.246Z,87.42
2023-01-13T03:42:00.059Z,88.23
2023-01-13T03:42:33.704Z,88.72
2023-01-13T03:43:28.765Z,89.07
2023-01-13T03:44:24.001Z,88.95
2023-01-13T03:45:00.675Z,88.24
2023-01-13T03:45:34.298Z,87.84
2023-01-13T03:46:12.605Z,88.21
2023-01-13T03:46:49.396Z,88.40
2023-01-13T03:47:24.085Z,88.74
2023-01-13T03:47:57.815Z,88.82
2023-01-13T03:48:31.965Z,89.09
2023-01-13T03:49:04.572Z,89.75
2023-01-13T03:49:48.537Z,89.92
2023-01-13T03:50:22.365Z,89.96
2023-01-13T03:50:56.379Z,89.72
2023-01-13T03:51:29.973Z,89.42
2023-01-13T03:52:05.497Z,89.33
2023-01-13T03:52:39.651Z,89.45
2023-01-13T03:53:18.791Z,89.62
2023-01-13T03:53:54.806Z,89.69
2023-01-13T03:54:28.997Z,89.26
2023-01-13T03:55:03.536Z,89.11
2023-01-13T03:55:37.943Z,88.85
2023-01-13T03:56:13.251Z,88.89
2023-01-13T03:56:51.475Z,89.25
2023-01-13T03:57:26.142Z,89.39
2023-01-13T03:58:03.663Z,89.18
2023-01-13T03:58:37.982Z,89.20
2023-01-13T03:59:14.257Z,89.10
2023-01-13T03:59:49.983Z,88.90
2023-01-13T04:00:27.092Z,89.12
2023-01-13T04:01:02.134Z,89.11
2023-01-13T04:01:53.011Z,89.14
2023-01-13T04:02:47.186Z,89.85
2023-01-13T04:03:38.726Z,89.29
2023-01-13T04:04:13.800Z,91.17
2023-01-13T04:05:14.876Z,90.45
2023-01-13T04:05:51.051Z,89.78
2023-01-13T04:06:35.947Z,89.45
2023-01-13T04:07:07.718Z,89.36
2023-01-13T04:08:01.026Z,89.62
2023-01-13T04:08:34.931Z,89.62
2023-01-13T04:09:11.820Z,93.56
2023-01-13T04:09:54.437Z,94.39
2023-01-13T04:10:28.879Z,93.42
2023-01-13T04:11:00.548Z,91.48
2023-01-13T04:11:35.591Z,90.73
2023-01-13T04:12:13.427Z,91.03
2023-01-13T04:13:01.072Z,91.77
2023-01-13T04:13:37.009Z,92.38
2023-01-13T04:14:09.300Z,93.18
2023-01-13T04:14:41.583Z,93.53
2023-01-13T04:15:13.495Z,92.95
2023-01-13T04:15:46.279Z,92.28
2023-01-13T04:16:18.247Z,91.80
2023-01-13T04:16:50.297Z,91.44
2023-01-13T04:17:22.313Z,91.37
2023-01-13T04:17:54.434Z,92.40
2023-01-13T04:18:27.366Z,93.06
2023-01-13T04:18:59.092Z,93.25
2023-01-13T04:19:31.727Z,92.82
2023-01-13T04:20:03.508Z,93.31
2023-01-13T04:20:35.465Z,92.82
2023-01-13T04:21:07.928Z,92.35
2023-01-13T04:21:39.619Z,91.94
2023-01-13T04:22:11.602Z,91.87
2023-01-13T04:22:43.282Z,91.46
2023-01-13T04:23:15.487Z,90.99
2023-01-13T04:23:51.321Z,90.64
2023-01-13T04:24:22.985Z,90.35
2023-01-13T04:24:54.673Z,91.39
2023-01-13T04:25:26.371Z,91.22
2023-01-13T04:25:58.394Z,91.94
2023-01-13T04:26:30.075Z,92.91
2023-01-13T04:27:01.761Z,93.22
2023-01-13T04:27:33.890Z,92.80
2023-01-13T04:28:06.753Z,92.38
2023-01-13T04:28:40.680Z,92.00
2023-01-13T04:29:14.068Z,91.67
2023-01-13T04:29:47.131Z,91.49
2023-01-13T04:30:18.817Z,91.64
2023-01-13T04:30:50.652Z,91.93
2023-01-13T04:31:22.444Z,91.98
2023-01-13T04:31:54.233Z,91.96
2023-01-13T04:32:26.043Z,91.93
2023-01-13T04:32:58.088Z,91.60
2023-01-13T04:33:29.751Z,91.50
2023-01-13T04:34:01.465Z,91.45
2023-01-13T04:34:33.143Z,91.17
2023-01-13T04:35:05.389Z,90.56
2023-01-13T04:35:37.482Z,89.78
2023-01-13T04:36:09.373Z,90.15
2023-01-13T04:36:41.114Z,89.98
2023-01-13T04:37:12.781Z,90.32
2023-01-13T04:37:44.486Z,90.45
2023-01-13T04:38:17.818Z,90.33
2023-01-13T04:38:50.182Z,90.33
2023-01-13T04:39:22.001Z,90.06
2023-01-13T04:39:53.720Z,89.10
2023-01-13T04:40:25.397Z,88.99
2023-01-13T04:40:57.096Z,88.61
2023-01-13T04:41:28.799Z,88.16
2023-01-13T04:42:02.320Z,87.85
2023-01-13T04:42:34.023Z,87.69
2023-01-13T04:43:06.061Z,87.39
2023-01-13T04:43:38.121Z,87.05
2023-01-13T04:44:09.804Z,87.04
2023-01-13T04:44:41.473Z,86.97
2023-01-13T04:45:13.640Z,87.47
2023-01-13T04:45:45.314Z,88.02
2023-01-13T04:46:17.019Z,88.15
2023-01-13T04:46:48.780Z,87.73
2023-01-13T04:47:20.457Z,87.29
2023-01-13T04:47:52.194Z,86.84
2023-01-13T04:48:23.896Z,86.58
2023-01-13T04:48:55.911Z,86.75
2023-01-13T04:49:27.653Z,88.10
2023-01-13T04:49:59.335Z,88.71
2023-01-13T04:50:31.108Z,89.04
2023-01-13T04:51:02.807Z,89.11
2023-01-13T04:51:34.833Z,89.17
2023-01-13T04:52:07.252Z,88.84
2023-01-13T04:52:39.048Z,89.12
2023-01-13T04:53:10.885Z,89.07
2023-01-13T04:53:42.591Z,88.73
2023-01-13T04:54:14.892Z,89.00
2023-01-13T04:54:46.594Z,89.45
2023-01-13T04:55:18.923Z,89.90
2023-01-13T04:55:52.119Z,90.15
2023-01-13T04:56:23.845Z,90.90
2023-01-13T04:56:55.556Z,91.30
2023-01-13T04:57:27.372Z,91.72
2023-01-13T04:58:03.417Z,91.37
2023-01-13T04:58:35.362Z,91.07
2023-01-13T04:59:07.086Z,90.67
2023-01-13T04:59:39.084Z,90.59
2023-01-13T05:00:12.015Z,90.96
2023-01-13T05:00:43.857Z,90.96
2023-01-13T05:01:15.588Z,90.64
2023-01-13T05:01:47.429Z,90.11
2023-01-13T05:02:21.898Z,90.49
2023-01-13T05:02:53.645Z,90.68
2023-01-13T05:03:26.775Z,90.88
2023-01-13T05:03:58.474Z,91.04
2023-01-13T05:04:30.261Z,91.14
2023-01-13T05:05:02.355Z,91.21
2023-01-13T05:05:34.121Z,91.48
2023-01-13T05:06:05.954Z,91.42
2023-01-13T05:06:37.692Z,91.08
2023-01-13T05:07:09.429Z,90.60
2023-01-13T05:07:41.173Z,90.48
2023-01-13T05:08:12.922Z,90.82
2023-01-13T05:08:44.658Z,90.90
2023-01-13T05:09:16.666Z,90.83
2023-01-13T05:09:48.500Z,91.55
2023-01-13T05:10:23.002Z,92.05
2023-01-13T05:10:55.724Z,91.75
2023-01-13T05:11:45.851Z,91.60
2023-01-13T05:12:36.769Z,91.80
2023-01-13T05:13:27.865Z,92.18
2023-01-13T05:14:19.841Z,92.44
2023-01-13T05:15:10.284Z,92.17
2023-01-13T05:16:02.076Z,91.06
2023-01-13T05:16:52.382Z,89.89
2023-01-13T05:17:25.093Z,90.15
2023-01-13T05:17:56.850Z,90.25
2023-01-13T05:18:29.481Z,90.01
2023-01-13T05:19:01.175Z,89.96
2023-01-13T05:19:34.749Z,90.08
2023-01-13T05:20:06.737Z,90.18
2023-01-13T05:20:38.428Z,89.97
2023-01-13T05:21:30.390Z,89.79
2023-01-13T05:22:21.254Z,89.85
2023-01-13T05:23:11.800Z,88.60
2023-01-13T05:24:02.153Z,88.79
2023-01-13T05:24:52.742Z,89.25
2023-01-13T05:25:25.358Z,89.44
2023-01-13T05:25:57.112Z,89.52
2023-01-13T05:26:29.087Z,89.44
2023-01-13T05:27:00.848Z,89.58
2023-01-13T05:27:32.952Z,89.38
2023-01-13T05:28:05.001Z,89.12
2023-01-13T05:28:36.764Z,88.83
2023-01-13T05:29:08.460Z,88.75
2023-01-13T05:29:40.144Z,88.74
2023-01-13T05:30:12.137Z,89.10
2023-01-13T05:30:46.128Z,89.30
2023-01-13T05:31:17.869Z,89.10
2023-01-13T05:31:50.051Z,88.76
2023-01-13T05:32:22.242Z,88.41
2023-01-13T05:32:54.255Z,88.15
2023-01-13T05:33:25.977Z,88.39
2023-01-13T05:33:57.699Z,88.56
2023-01-13T05:34:29.375Z,88.49
2023-01-13T05:35:01.208Z,88.31
2023-01-13T05:35:33.066Z,87.69
2023-01-13T05:36:05.840Z,87.40
2023-01-13T05:36:37.561Z,87.59
2023-01-13T05:37:11.126Z,87.80
2023-01-13T05:37:43.286Z,88.16
2023-01-13T05:38:15.815Z,88.64
2023-01-13T05:38:47.510Z,88.51
2023-01-13T05:39:19.201Z,88.36
2023-01-13T05:40:09.904Z,88.62
2023-01-13T05:41:00.963Z,89.12
2023-01-13T05:41:51.550Z,89.09
2023-01-13T05:42:41.945Z,88.90
2023-01-13T05:43:20.799Z,88.43
2023-01-13T05:43:52.462Z,89.14
2023-01-13T05:44:24.216Z,89.54
2023-01-13T05:44:55.876Z,89.64
2023-01-13T05:45:27.615Z,89.70
2023-01-13T05:46:00.604Z,89.67
2023-01-13T05:46:32.423Z,89.52
2023-01-13T05:47:04.150Z,88.71
2023-01-13T05:47:36.310Z,88.83
2023-01-13T05:48:08.138Z,89.06
2023-01-13T05:48:41.523Z,89.18
2023-01-13T05:49:13.407Z,89.13
2023-01-13T05:49:45.152Z,88.85
2023-01-13T05:50:17.088Z,88.42
2023-01-13T05:50:49.652Z,88.44
2023-01-13T05:51:26.239Z,88.27
2023-01-13T05:51:58.138Z,88.09
2023-01-13T05:52:29.837Z,87.86
2023-01-13T05:53:01.853Z,88.23
2023-01-13T05:53:33.856Z,88.02
2023-01-13T05:54:05.586Z,87.84
2023-01-13T05:54:37.257Z,87.88
2023-01-13T05:55:09.508Z,88.14
2023-01-13T05:55:42.070Z,88.56
2023-01-13T05:56:13.895Z,88.68
2023-01-13T05:56:45.592Z,88.89
2023-01-13T05:57:17.299Z,88.99
2023-01-13T05:57:49.030Z,89.10
2023-01-13T05:58:21.876Z,88.96
2023-01-13T05:58:53.805Z,89.06
2023-01-13T05:59:25.443Z,89.56
2023-01-13T05:59:57.267Z,89.88
2023-01-13T06:00:29.001Z,91.13
2023-01-13T06:01:01.851Z,92.30
2023-01-13T06:01:34.043Z,92.37
2023-01-13T06:02:05.743Z,92.58
2023-01-13T06:02:37.493Z,92.66
2023-01-13T06:03:09.730Z,92.72
2023-01-13T06:03:41.400Z,92.24
2023-01-13T06:04:13.196Z,91.78
2023-01-13T06:04:45.178Z,91.31
2023-01-13T06:05:16.870Z,91.51
2023-01-13T06:05:48.845Z,91.49
2023-01-13T06:06:20.833Z,91.53
2023-01-13T06:06:52.513Z,91.66
2023-01-13T06:07:24.227Z,91.53
2023-01-13T06:07:56.717Z,91.41
2023-01-13T06:08:28.843Z,91.40
2023-01-13T06:09:00.548Z,91.79
2023-01-13T06:09:32.245Z,92.09
2023-01-13T06:10:04.485Z,92.16
2023-01-13T06:10:36.689Z,92.29
2023-01-13T06:11:08.401Z,92.28
2023-01-13T06:11:40.409Z,92.58
2023-01-13T06:12:13.125Z,92.51
2023-01-13T06:12:44.848Z,92.14
2023-01-13T06:13:16.634Z,91.91
2023-01-13T06:13:48.338Z,91.94
2023-01-13T06:14:20.028Z,91.88
2023-01-13T06:14:51.724Z,91.76
2023-01-13T06:15:23.536Z,92.27
2023-01-13T06:15:56.037Z,92.91
2023-01-13T06:16:27.907Z,92.73
2023-01-13T06:17:00.056Z,92.33
2023-01-13T06:17:31.746Z,92.09
2023-01-13T06:18:04.587Z,91.89
2023-01-13T06:18:36.257Z,91.58
2023-01-13T06:19:09.303Z,91.57
2023-01-13T06:19:41.667Z,91.71
2023-01-13T06:20:14.239Z,91.71
2023-01-13T06:20:47.090Z,91.59
2023-01-13T06:21:18.781Z,91.98
2023-01-13T06:21:50.491Z,91.88
2023-01-13T06:22:24.293Z,92.06
2023-01-13T06:22:56.032Z,92.12
2023-01-13T06:23:28.363Z,92.25
2023-01-13T06:24:00.276Z,92.35
2023-01-13T06:24:32.008Z,92.43
2023-01-13T06:25:03.845Z,92.30
2023-01-13T06:25:35.525Z,91.93
2023-01-13T06:26:13.074Z,91.55
2023-01-13T06:26:44.768Z,91.74
2023-01-13T06:27:16.871Z,91.89
2023-01-13T06:27:49.301Z,91.74
2023-01-13T06:28:21.029Z,91.65
2023-01-13T06:28:52.727Z,91.58
2023-01-13T06:29:24.492Z,91.31
2023-01-13T06:29:57.122Z,91.51
2023-01-13T06:30:31.008Z,91.50
2023-01-13T06:31:04.750Z,91.43
2023-01-13T06:31:38.889Z,91.28
2023-01-13T06:32:16.780Z,91.02
2023-01-13T06:32:52.091Z,91.09
2023-01-13T06:33:26.967Z,91.40
2023-01-13T06:34:03.135Z,91.58
2023-01-13T06:34:35.425Z,92.16
2023-01-13T06:35:09.446Z,91.68
2023-01-13T06:35:44.056Z,91.63
2023-01-13T06:36:19.284Z,91.43
2023-01-13T06:36:52.431Z,91.03
2023-01-13T06:37:26.203Z,90.89
2023-01-13T06:37:59.801Z,90.71
2023-01-13T06:38:35.014Z,90.75
2023-01-13T06:39:08.578Z,90.93
2023-01-13T06:39:40.835Z,91.07
2023-01-13T06:40:13.592Z,90.96
2023-01-13T06:40:45.503Z,91.17
2023-01-13T06:41:17.601Z,91.45
2023-01-13T06:42:09.739Z,91.87
2023-01-13T06:43:00.388Z,92.19
2023-01-13T06:43:32.457Z,91.49
2023-01-13T06:44:04.205Z,91.85
2023-01-13T06:44:36.029Z,92.01
2023-01-13T06:45:08.043Z,92.26
2023-01-13T06:45:39.906Z,92.47
2023-01-13T06:46:11.599Z,92.34
2023-01-13T06:46:43.455Z,92.13
2023-01-13T06:47:15.183Z,92.13
2023-01-13T06:47:46.895Z,92.23
2023-01-13T06:48:20.123Z,95.70
2023-01-13T06:48:52.093Z,95.07
2023-01-13T06:49:23.785Z,93.88
2023-01-13T06:49:55.491Z,93.22
2023-01-13T06:50:28.345Z,92.91
2023-01-13T06:51:00.116Z,95.35
2023-01-13T06:51:31.879Z,95.46
2023-01-13T06:52:03.723Z,93.10
2023-01-13T06:52:35.404Z,92.24
2023-01-13T06:53:07.079Z,92.16
2023-01-13T06:53:38.768Z,92.24
2023-01-13T06:54:10.757Z,92.44
2023-01-13T06:54:42.456Z,91.86
2023-01-13T06:55:14.219Z,91.32
2023-01-13T06:55:45.892Z,90.83
2023-01-13T06:56:17.809Z,90.78
2023-01-13T06:56:49.479Z,90.92
2023-01-13T06:57:21.147Z,90.69
2023-01-13T06:57:56.932Z,90.86
2023-01-13T06:58:28.674Z,90.55
2023-01-13T06:59:00.604Z,90.37
2023-01-13T06:59:35.217Z,90.05
2023-01-13T07:00:07.254Z,90.53
2023-01-13T07:00:39.361Z,91.10
2023-01-13T07:01:11.197Z,91.18
2023-01-13T07:01:43.401Z,91.55
2023-01-13T07:02:15.273Z,91.77
2023-01-13T07:02:47.525Z,91.26
2023-01-13T07:03:19.505Z,91.44
2023-01-13T07:03:51.647Z,91.44
2023-01-13T07:04:23.386Z,92.17
2023-01-13T07:04:55.488Z,92.72
2023-01-13T07:05:27.163Z,92.82
2023-01-13T07:05:59.856Z,92.99
2023-01-13T07:06:31.598Z,92.90
2023-01-13T07:07:03.338Z,92.75
2023-01-13T07:07:35.055Z,92.73
2023-01-13T07:08:07.324Z,92.78
2023-01-13T07:08:39.177Z,92.68
2023-01-13T07:09:10.996Z,92.50
2023-01-13T07:09:42.691Z,92.27
2023-01-13T07:10:22.392Z,92.01
2023-01-13T07:10:54.347Z,91.94
2023-01-13T07:11:26.066Z,91.75
2023-01-13T07:11:57.730Z,91.09
2023-01-13T07:12:29.446Z,91.16
2023-01-13T07:13:20.735Z,91.88
2023-01-13T07:14:10.920Z,92.20
2023-01-13T07:15:01.509Z,91.42
2023-01-13T07:15:33.888Z,94.88
2023-01-13T07:16:07.056Z,92.29
2023-01-13T07:16:38.863Z,91.64
2023-01-13T07:17:10.582Z,91.91
2023-01-13T07:17:42.276Z,91.88
2023-01-13T07:18:14.019Z,91.79
2023-01-13T07:18:45.713Z,91.83
2023-01-13T07:19:23.232Z,91.93
2023-01-13T07:19:54.978Z,91.86
2023-01-13T07:20:27.249Z,91.78
2023-01-13T07:21:00.364Z,91.84
2023-01-13T07:21:32.050Z,91.82
2023-01-13T07:22:03.816Z,91.72
2023-01-13T07:22:35.522Z,91.79
2023-01-13T07:23:07.175Z,91.94
2023-01-13T07:23:40.169Z,91.85
2023-01-13T07:24:11.875Z,91.63
2023-01-13T07:24:43.623Z,91.49
2023-01-13T07:25:15.306Z,91.94
2023-01-13T07:25:47.020Z,92.23
2023-01-13T07:26:19.018Z,92.42
2023-01-13T07:26:50.969Z,92.62
2023-01-13T07:27:22.641Z,92.65
2023-01-13T07:27:57.193Z,92.63
2023-01-13T07:28:29.810Z,92.45
2023-01-13T07:29:01.655Z,92.57